createdAt,value
2022-11-15T06:16:04.962Z,8.67
2022-11-15T06:26:05.010Z,9.00
2022-11-15T06:36:04.812Z,9.04
2022-11-15T06:46:04.934Z,9.25
2022-11-15T06:56:04.875Z,9.54
2022-11-15T07:06:07.534Z,9.97
2022-11-15T07:16:04.832Z,10.29
2022-11-15T07:26:04.975Z,10.08
2022-11-15T07:36:04.963Z,10.41
2022-11-15T07:46:04.891Z,10.52
2022-11-15T07:56:05.014Z,10.20
2022-11-15T08:06:05.073Z,9.99
2022-11-15T08:16:04.929Z,9.80
2022-11-15T08:26:05.051Z,9.96
2022-11-15T08:36:04.937Z,9.94
2022-11-15T08:46:05.016Z,10.13
2022-11-15T08:56:05.147Z,11.51
2022-11-15T09:06:05.029Z,12.01
2022-11-15T09:16:05.100Z,12.11
2022-11-15T09:26:05.439Z,12.19
2022-11-15T09:36:05.556Z,12.33
2022-11-15T09:46:05.585Z,12.70
2022-11-15T09:56:05.564Z,13.04
2022-11-15T10:06:05.648Z,13.31
2022-11-15T10:16:05.597Z,13.40
2022-11-15T10:26:06.980Z,13.65
2022-11-15T10:36:05.746Z,13.57
2022-11-15T10:46:24.614Z,13.87
2022-11-15T10:56:05.498Z,13.59
2022-11-15T11:06:05.637Z,13.51
2022-11-15T11:16:05.746Z,13.83
2022-11-15T11:26:05.588Z,13.85
2022-11-15T11:36:05.625Z,13.93
2022-11-15T11:46:05.694Z,13.96
2022-11-15T11:56:05.665Z,14.01
2022-11-15T12:06:05.560Z,13.90
2022-11-15T12:16:09.236Z,14.44
2022-11-15T12:26:05.696Z,14.58
2022-11-15T12:36:05.797Z,14.33
2022-11-15T12:46:05.780Z,13.89
2022-11-15T12:56:05.647Z,13.83
2022-11-15T13:06:05.838Z,13.74
2022-11-15T13:16:05.751Z,13.68
2022-11-15T13:26:05.799Z,13.75
2022-11-15T13:36:05.940Z,13.62
2022-11-15T13:46:05.770Z,13.79
2022-11-15T13:56:05.778Z,14.16
2022-11-15T14:06:05.878Z,14.17
2022-11-15T14:16:05.750Z,14.18
2022-11-15T14:26:11.470Z,14.01
2022-11-15T14:36:05.734Z,13.78
2022-11-15T14:46:05.773Z,13.80
2022-11-15T14:56:05.875Z,13.02
2022-11-15T15:06:05.814Z,12.63
2022-11-15T15:16:05.708Z,12.84
2022-11-15T15:26:05.822Z,12.57
2022-11-15T15:36:05.757Z,12.27
2022-11-15T15:46:05.922Z,12.24
2022-11-15T15:56:05.840Z,12.39
2022-11-15T16:06:05.796Z,12.33
2022-11-15T16:16:05.799Z,12.02
2022-11-15T16:26:05.816Z,11.86
2022-11-15T16:36:05.898Z,11.73
2022-11-15T16:46:08.230Z,11.52
2022-11-15T16:56:05.789Z,11.30
2022-11-15T17:06:05.908Z,11.10
2022-11-15T17:16:05.789Z,11.12
2022-11-15T17:26:28.171Z,11.20
2022-11-15T17:36:05.741Z,11.09
2022-11-15T17:46:05.694Z,11.10
2022-11-15T17:56:05.715Z,10.99
2022-11-15T18:06:05.797Z,10.99
2022-11-15T18:16:05.745Z,11.21
2022-11-15T18:26:05.745Z,11.13
2022-11-15T18:36:05.844Z,11.16
2022-11-15T18:46:06.071Z,11.17
2022-11-15T18:56:06.223Z,11.10
2022-11-15T19:06:06.238Z,11.29
2022-11-15T19:16:06.469Z,11.29
